Barstow Daggett Airport
KDAG : now visible

Airfield :











YOU CAN JOIN US ON...

 
LOGIN :

Register | Disclaimer

   EN    FR    IT 

 









Legend :    VFR   Marginal VFR   IFR   Intensive IFR   Very Intensive IFR
Visi :
Ceiling :
>= 8 km
>= 3000ft
5 to 8 km
1000 to 3000 ft
1500m to 5 km
500 to 1000 ft
800 to 1500m
200 to 500 ft
< 800m
< 200 ft
Symbols :   Thunderstorms  Fog  Heavy snow  Heavy precipitations  Wind > 20 kt






- Airport Elevation : 1930 ft


KDAG - Barstow Daggett

CURRENT METAR :
  • 121650Z AUTO 30012KT 10SM CLR 38/03 A2992 RMK AO2 SLP098 T03830033

EXPIRED METARs :
  • 121550Z AUTO 29014KT 10SM CLR 35/02 A2995 RMK AO2 SLP105 T03500022
  • 121450Z AUTO 30012KT 10SM CLR 32/02 A2995 RMK AO2 SLP108 T03220022 51009

TAF KDAG
Valid from the 12 at 12:00 until the 13 at 12:00 UTC


121127Z 1212/1312 27013KT P6SM FEW150
FM121600 29009KT P6SM SCT150
FM122200 26015G25KT P6SM SCT150
KZLA FIR / North America



MET'MAP, your aeronautical weather chart ! - Copyright ORBIFLY December 2007 - Disclaimer

ORBIFLY MET'MAP TEAM :

Programming & Development : Alexandra Zaïnal
Concept & original design : Baudouin d'Aumeries
Assistance for programming : Marc-Olivier Méhu
Technical & hardware support : Manuel Goepfert

Contact : metmap@orbifly.com




SOURCES & CREDITS :

   NOAA       Earth
Advisory